sensor_id;sensor_type;location;lat;lon;timestamp;pressure;altitude;pressure_sealevel;temperature;humidity
57628;BME280;43451;49.060;10.616;2023-06-24T00:00:39;97620.66;;;16.05;100.00
57628;BME280;43451;49.060;10.616;2023-06-24T00:03:05;97618.34;;;16.00;100.00
57628;BME280;43451;49.060;10.616;2023-06-24T00:05:33;97610.31;;;16.20;100.00
57628;BME280;43451;49.060;10.616;2023-06-24T00:07:58;97613.16;;;16.13;100.00
57628;BME280;43451;49.060;10.616;2023-06-24T00:10:27;97617.50;;;16.07;100.00
57628;BME280;43451;49.060;10.616;2023-06-24T00:12:53;97610.09;;;16.04;100.00
57628;BME280;43451;49.060;10.616;2023-06-24T00:15:19;97617.53;;;16.03;100.00
57628;BME280;43451;49.060;10.616;2023-06-24T00:17:45;97608.94;;;16.01;100.00
57628;BME280;43451;49.060;10.616;2023-06-24T00:20:10;97610.50;;;16.02;100.00
57628;BME280;43451;49.060;10.616;2023-06-24T00:22:39;97607.72;;;16.06;100.00
57628;BME280;43451;49.060;10.616;2023-06-24T00:25:09;97612.78;;;16.07;100.00
57628;BME280;43451;49.060;10.616;2023-06-24T00:27:35;97612.78;;;16.07;100.00
57628;BME280;43451;49.060;10.616;2023-06-24T00:30:00;97617.94;;;16.05;100.00
57628;BME280;43451;49.060;10.616;2023-06-24T00:32:26;97615.16;;;16.09;100.00
57628;BME280;43451;49.060;10.616;2023-06-24T00:34:51;97613.19;;;16.09;100.00
57628;BME280;43451;49.060;10.616;2023-06-24T00:37:17;97612.78;;;16.07;100.00
57628;BME280;43451;49.060;10.616;2023-06-24T00:39:43;97604.59;;;16.04;100.00
57628;BME280;43451;49.060;10.616;2023-06-24T00:42:08;97601.09;;;16.03;100.00
57628;BME280;43451;49.060;10.616;2023-06-24T00:44:34;97590.91;;;16.04;100.00
57628;BME280;43451;49.060;10.616;2023-06-24T00:47:00;97596.44;;;16.00;100.00
57628;BME280;43451;49.060;10.616;2023-06-24T00:49:27;97589.44;;;15.92;100.00
57628;BME280;43451;49.060;10.616;2023-06-24T00:51:52;97582.84;;;15.86;100.00
57628;BME280;43451;49.060;10.616;2023-06-24T00:54:18;97594.91;;;15.92;100.00
57628;BME280;43451;49.060;10.616;2023-06-24T00:56:43;97587.03;;;15.97;100.00
57628;BME280;43451;49.060;10.616;2023-06-24T00:59:13;97599.16;;;16.00;100.00
57628;BME280;43451;49.060;10.616;2023-06-24T01:01:40;97597.97;;;16.01;100.00
57628;BME280;43451;49.060;10.616;2023-06-24T01:04:06;97593.69;;;16.00;100.00
57628;BME280;43451;49.060;10.616;2023-06-24T01:06:32;97593.31;;;15.98;100.00
57628;BME280;43451;49.060;10.616;2023-06-24T01:08:58;97588.63;;;15.95;100.00
57628;BME280;43451;49.060;10.616;2023-06-24T01:11:26;97598.84;;;15.91;100.00
57628;BME280;43451;49.060;10.616;2023-06-24T01:13:52;97594.22;;;15.84;100.00
57628;BME280;43451;49.060;10.616;2023-06-24T01:16:51;97600.88;;;15.83;100.00
57628;BME280;43451;49.060;10.616;2023-06-24T01:25:32;97598.38;;;15.51;100.00
57628;BME280;43451;49.060;10.616;2023-06-24T01:34:06;97586.13;;;15.07;100.00
57628;BME280;43451;49.060;10.616;2023-06-24T01:36:38;97588.53;;;14.94;100.00
57628;BME280;43451;49.060;10.616;2023-06-24T01:39:08;97583.91;;;14.80;100.00
57628;BME280;43451;49.060;10.616;2023-06-24T01:41:40;97582.00;;;14.70;100.00
57628;BME280;43451;49.060;10.616;2023-06-24T01:44:08;97587.06;;;14.68;100.00
57628;BME280;43451;49.060;10.616;2023-06-24T01:46:35;97581.59;;;14.68;100.00
57628;BME280;43451;49.060;10.616;2023-06-24T01:49:04;97570.66;;;14.68;100.00
57628;BME280;43451;49.060;10.616;2023-06-24T01:51:31;97568.34;;;14.67;100.00
57628;BME280;43451;49.060;10.616;2023-06-24T01:54:06;97559.38;;;14.62;100.00
57628;BME280;43451;49.060;10.616;2023-06-24T01:56:33;97562.13;;;14.59;100.00
57628;BME280;43451;49.060;10.616;2023-06-24T01:59:01;97560.59;;;14.51;100.00
57628;BME280;43451;49.060;10.616;2023-06-24T02:01:27;97566.03;;;14.47;100.00
57628;BME280;43451;49.060;10.616;2023-06-24T02:03:55;97564.50;;;14.46;100.00
57628;BME280;43451;49.060;10.616;2023-06-24T02:06:22;97559.03;;;14.39;100.00
57628;BME280;43451;49.060;10.616;2023-06-24T02:08:50;97565.31;;;14.32;100.00
57628;BME280;43451;49.060;10.616;2023-06-24T02:11:18;97563.00;;;14.27;100.00
57628;BME280;43451;49.060;10.616;2023-06-24T02:13:44;97561.03;;;14.28;100.00
57628;BME280;43451;49.060;10.616;2023-06-24T02:16:10;97559.09;;;14.21;100.00
57628;BME280;43451;49.060;10.616;2023-06-24T02:18:39;97568.50;;;14.09;100.00
57628;BME280;43451;49.060;10.616;2023-06-24T02:21:09;97564.59;;;14.03;100.00
57628;BME280;43451;49.060;10.616;2023-06-24T02:23:36;97555.66;;;13.96;100.00
57628;BME280;43451;49.060;10.616;2023-06-24T02:26:02;97559.16;;;13.92;100.00
57628;BME280;43451;49.060;10.616;2023-06-24T02:28:29;97547.44;;;13.85;100.00
57628;BME280;43451;49.060;10.616;2023-06-24T02:30:56;97555.25;;;13.76;100.00
57628;BME280;43451;49.060;10.616;2023-06-24T02:33:22;97552.94;;;13.67;100.00
57628;BME280;43451;49.060;10.616;2023-06-24T02:35:48;97550.59;;;13.65;100.00
57628;BME280;43451;49.060;10.616;2023-06-24T02:38:13;97553.69;;;13.60;100.00
57628;BME280;43451;49.060;10.616;2023-06-24T02:40:39;97549.84;;;13.54;100.00
57628;BME280;43451;49.060;10.616;2023-06-24T02:43:05;97552.94;;;13.45;100.00
57628;BME280;43451;49.060;10.616;2023-06-24T02:45:31;97560.72;;;13.47;100.00
57628;BME280;43451;49.060;10.616;2023-06-24T02:47:57;97555.66;;;13.45;100.00
57628;BME280;43451;49.060;10.616;2023-06-24T02:50:23;97558.00;;;13.36;100.00
57628;BME280;43451;49.060;10.616;2023-06-24T02:52:51;97561.09;;;13.31;100.00
57628;BME280;43451;49.060;10.616;2023-06-24T02:55:17;97570.84;;;13.25;100.00
57628;BME280;43451;49.060;10.616;2023-06-24T02:57:43;97561.06;;;13.20;100.00
57628;BME280;43451;49.060;10.616;2023-06-24T03:00:10;97572.75;;;13.21;100.00
57628;BME280;43451;49.060;10.616;2023-06-24T03:02:38;97578.63;;;13.23;100.00
57628;BME280;43451;49.060;10.616;2023-06-24T03:05:06;97580.97;;;13.24;100.00
57628;BME280;43451;49.060;10.616;2023-06-24T03:07:31;97580.22;;;13.28;100.00
57628;BME280;43451;49.060;10.616;2023-06-24T03:10:04;97580.53;;;13.19;100.00
57628;BME280;43451;49.060;10.616;2023-06-24T03:12:31;97586.41;;;13.21;100.00
57628;BME280;43451;49.060;10.616;2023-06-24T03:14:57;97589.91;;;13.18;100.00
57628;BME280;43451;49.060;10.616;2023-06-24T03:17:23;97579.00;;;13.11;100.00
57628;BME280;43451;49.060;10.616;2023-06-24T03:19:50;97589.50;;;13.05;100.00
57628;BME280;43451;49.060;10.616;2023-06-24T03:22:16;97594.94;;;13.05;100.00
57628;BME280;43451;49.060;10.616;2023-06-24T03:24:42;97595.72;;;12.98;100.00
57628;BME280;43451;49.060;10.616;2023-06-24T03:27:08;97595.69;;;12.91;100.00
57628;BME280;43451;49.060;10.616;2023-06-24T03:29:34;97601.09;;;12.84;100.00
57628;BME280;43451;49.060;10.616;2023-06-24T03:31:59;97591.78;;;12.85;100.00
57628;BME280;43451;49.060;10.616;2023-06-24T03:34:25;97595.63;;;12.77;100.00
57628;BME280;43451;49.060;10.616;2023-06-24T03:36:53;97592.13;;;12.73;100.00
57628;BME280;43451;49.060;10.616;2023-06-24T03:39:22;97587.47;;;12.77;100.00
57628;BME280;43451;49.060;10.616;2023-06-24T03:41:48;97589.41;;;12.73;100.00
57628;BME280;43451;49.060;10.616;2023-06-24T03:44:13;97600.28;;;12.69;100.00
57628;BME280;43451;49.060;10.616;2023-06-24T03:46:39;97602.63;;;12.67;100.00
57628;BME280;43451;49.060;10.616;2023-06-24T03:49:06;97606.13;;;12.71;100.00
57628;BME280;43451;49.060;10.616;2023-06-24T03:51:31;97617.84;;;12.75;100.00
57628;BME280;43451;49.060;10.616;2023-06-24T03:53:57;97609.69;;;12.79;100.00
57628;BME280;43451;49.060;10.616;2023-06-24T03:56:23;97620.19;;;12.84;100.00
57628;BME280;43451;49.060;10.616;2023-06-24T03:58:48;97627.63;;;12.87;100.00
57628;BME280;43451;49.060;10.616;2023-06-24T04:01:14;97621.41;;;12.90;100.00
57628;BME280;43451;49.060;10.616;2023-06-24T04:03:39;97623.75;;;12.95;100.00
57628;BME280;43451;49.060;10.616;2023-06-24T04:06:05;97636.63;;;12.98;100.00
57628;BME280;43451;49.060;10.616;2023-06-24T04:08:30;97635.47;;;12.99;100.00
57628;BME280;43451;49.060;10.616;2023-06-24T04:10:57;97642.50;;;13.04;100.00
57628;BME280;43451;49.060;10.616;2023-06-24T04:13:24;97637.06;;;13.11;100.00
57628;BME280;43451;49.060;10.616;2023-06-24T04:15:49;97638.63;;;13.16;100.00
57628;BME280;43451;49.060;10.616;2023-06-24T04:18:15;97642.94;;;13.17;100.00
57628;BME280;43451;49.060;10.616;2023-06-24T04:20:40;97651.13;;;13.17;100.00
57628;BME280;43451;49.060;10.616;2023-06-24T04:23:06;97653.13;;;13.27;100.00
57628;BME280;43451;49.060;10.616;2023-06-24T04:25:34;97648.84;;;13.37;100.00
57628;BME280;43451;49.060;10.616;2023-06-24T04:28:00;97651.22;;;13.38;100.00
57628;BME280;43451;49.060;10.616;2023-06-24T04:30:25;97647.31;;;13.46;100.00
57628;BME280;43451;49.060;10.616;2023-06-24T04:32:50;97652.41;;;13.59;100.00
57628;BME280;43451;49.060;10.616;2023-06-24T04:35:16;97649.66;;;13.55;100.00
57628;BME280;43451;49.060;10.616;2023-06-24T04:37:41;97659.03;;;13.65;100.00
57628;BME280;43451;49.060;10.616;2023-06-24T04:40:08;97657.50;;;13.71;100.00
57628;BME280;43451;49.060;10.616;2023-06-24T04:42:34;97655.94;;;13.74;100.00
57628;BME280;43451;49.060;10.616;2023-06-24T04:45:00;97650.47;;;13.77;100.00
57628;BME280;43451;49.060;10.616;2023-06-24T04:47:26;97658.25;;;13.82;100.00
57628;BME280;43451;49.060;10.616;2023-06-24T04:49:52;97652.81;;;13.89;100.00
57628;BME280;43451;49.060;10.616;2023-06-24T04:52:17;97658.28;;;14.00;100.00
57628;BME280;43451;49.060;10.616;2023-06-24T04:54:43;97664.53;;;14.11;100.00
57628;BME280;43451;49.060;10.616;2023-06-24T04:57:09;97652.03;;;14.21;100.00
57628;BME280;43451;49.060;10.616;2023-06-24T04:59:47;97664.13;;;14.34;100.00
57628;BME280;43451;49.060;10.616;2023-06-24T05:02:13;97667.22;;;14.44;100.00
57628;BME280;43451;49.060;10.616;2023-06-24T05:04:38;97660.59;;;14.52;100.00
57628;BME280;43451;49.060;10.616;2023-06-24T05:07:04;97658.63;;;14.59;100.00
57628;BME280;43451;49.060;10.616;2023-06-24T05:09:29;97654.69;;;14.68;100.00
57628;BME280;43451;49.060;10.616;2023-06-24T05:11:55;97655.47;;;14.75;100.00
57628;BME280;43451;49.060;10.616;2023-06-24T05:14:20;97653.00;;;14.99;100.00
57628;BME280;43451;49.060;10.616;2023-06-24T05:16:46;97660.38;;;15.09;100.00
57628;BME280;43451;49.060;10.616;2023-06-24T05:19:11;97651.72;;;15.21;100.00
57628;BME280;43451;49.060;10.616;2023-06-24T05:21:37;97661.13;;;15.20;100.00
57628;BME280;43451;49.060;10.616;2023-06-24T05:24:02;97668.13;;;15.28;100.00
57628;BME280;43451;49.060;10.616;2023-06-24T05:26:28;97668.13;;;15.32;100.00
57628;BME280;43451;49.060;10.616;2023-06-24T05:28:53;97670.41;;;15.41;100.00
57628;BME280;43451;49.060;10.616;2023-06-24T05:31:19;97660.91;;;15.56;100.00
57628;BME280;43451;49.060;10.616;2023-06-24T05:33:44;97677.66;;;15.72;100.00
57628;BME280;43451;49.060;10.616;2023-06-24T05:36:10;97667.28;;;16.01;100.00
57628;BME280;43451;49.060;10.616;2023-06-24T05:38:36;97665.97;;;16.62;100.00
57628;BME280;43451;49.060;10.616;2023-06-24T05:41:01;97664.53;;;17.18;100.00
57628;BME280;43451;49.060;10.616;2023-06-24T05:43:28;97670.22;;;17.35;100.00
57628;BME280;43451;49.060;10.616;2023-06-24T05:45:53;97672.97;;;17.35;100.00
57628;BME280;43451;49.060;10.616;2023-06-24T05:48:19;97669.19;;;17.52;100.00
57628;BME280;43451;49.060;10.616;2023-06-24T05:50:45;97664.31;;;17.63;100.00
57628;BME280;43451;49.060;10.616;2023-06-24T05:53:10;97668.75;;;17.84;100.00
57628;BME280;43451;49.060;10.616;2023-06-24T05:55:36;97681.13;;;18.20;100.00
57628;BME280;43451;49.060;10.616;2023-06-24T05:58:01;97665.09;;;18.62;100.00
57628;BME280;43451;49.060;10.616;2023-06-24T06:00:27;97675.59;;;18.90;100.00
57628;BME280;43451;49.060;10.616;2023-06-24T06:02:52;97670.94;;;19.43;90.31
57628;BME280;43451;49.060;10.616;2023-06-24T06:05:18;97665.13;;;19.58;92.91
57628;BME280;43451;49.060;10.616;2023-06-24T06:07:43;97662.88;;;19.53;94.60
57628;BME280;43451;49.060;10.616;2023-06-24T06:10:09;97666.47;;;19.49;94.29
57628;BME280;43451;49.060;10.616;2023-06-24T06:12:35;97664.13;;;19.68;94.78
57628;BME280;43451;49.060;10.616;2023-06-24T06:15:01;97658.63;;;19.84;93.81
57628;BME280;43451;49.060;10.616;2023-06-24T06:17:27;97651.94;;;20.02;92.75
57628;BME280;43451;49.060;10.616;2023-06-24T06:19:52;97654.84;;;20.11;88.39
57628;BME280;43451;49.060;10.616;2023-06-24T06:22:18;97655.16;;;20.29;90.02
57628;BME280;43451;49.060;10.616;2023-06-24T06:24:43;97660.06;;;20.54;89.39
57628;BME280;43451;49.060;10.616;2023-06-24T06:27:09;97659.09;;;20.61;87.47
57628;BME280;43451;49.060;10.616;2023-06-24T06:29:36;97663.94;;;20.57;90.31
57628;BME280;43451;49.060;10.616;2023-06-24T06:32:01;97664.47;;;20.52;78.09
57628;BME280;43451;49.060;10.616;2023-06-24T06:34:26;97660.75;;;20.42;82.46
57628;BME280;43451;49.060;10.616;2023-06-24T06:36:52;97658.53;;;20.37;80.62
57628;BME280;43451;49.060;10.616;2023-06-24T06:39:17;97663.88;;;20.28;85.13
57628;BME280;43451;49.060;10.616;2023-06-24T06:41:43;97657.44;;;20.18;81.38
57628;BME280;43451;49.060;10.616;2023-06-24T06:44:09;97657.69;;;20.07;83.30
57628;BME280;43451;49.060;10.616;2023-06-24T06:46:34;97655.44;;;20.18;80.15
57628;BME280;43451;49.060;10.616;2023-06-24T06:49:00;97654.84;;;20.11;78.17
57628;BME280;43451;49.060;10.616;2023-06-24T06:51:25;97659.50;;;19.98;79.98
57628;BME280;43451;49.060;10.616;2023-06-24T06:53:51;97660.03;;;19.92;76.08
57628;BME280;43451;49.060;10.616;2023-06-24T06:56:18;97656.72;;;19.81;73.59
57628;BME280;43451;49.060;10.616;2023-06-24T06:58:44;97660.78;;;19.77;74.93
57628;BME280;43451;49.060;10.616;2023-06-24T07:01:09;97655.56;;;19.62;73.98
57628;BME280;43451;49.060;10.616;2023-06-24T07:03:35;97650.50;;;19.61;74.77
57628;BME280;43451;49.060;10.616;2023-06-24T07:06:00;97653.88;;;19.68;77.55
57628;BME280;43451;49.060;10.616;2023-06-24T07:08:26;97656.91;;;19.74;76.83
57628;BME280;43451;49.060;10.616;2023-06-24T07:10:51;97654.06;;;19.78;76.49
57628;BME280;43451;49.060;10.616;2023-06-24T07:13:17;97644.50;;;19.82;74.54
57628;BME280;43451;49.060;10.616;2023-06-24T07:15:42;97651.03;;;19.88;72.81
57628;BME280;43451;49.060;10.616;2023-06-24T07:18:08;97651.22;;;19.98;71.57
57628;BME280;43451;49.060;10.616;2023-06-24T07:20:34;97646.06;;;20.00;71.54
57628;BME280;43451;49.060;10.616;2023-06-24T07:22:59;97646.06;;;20.00;76.06
57628;BME280;43451;49.060;10.616;2023-06-24T07:25:25;97649.41;;;20.07;74.92
57628;BME280;43451;49.060;10.616;2023-06-24T07:27:51;97636.63;;;20.13;74.97
57628;BME280;43451;49.060;10.616;2023-06-24T07:30:16;97634.50;;;20.21;75.58
57628;BME280;43451;49.060;10.616;2023-06-24T07:32:42;97631.72;;;20.21;74.65
57628;BME280;43451;49.060;10.616;2023-06-24T07:35:08;97643.97;;;20.36;73.19
57628;BME280;43451;49.060;10.616;2023-06-24T07:37:34;97639.97;;;20.54;69.16
57628;BME280;43451;49.060;10.616;2023-06-24T07:39:59;97647.09;;;20.68;65.05
57628;BME280;43451;49.060;10.616;2023-06-24T07:42:25;97641.50;;;20.55;71.17
57628;BME280;43451;49.060;10.616;2023-06-24T07:44:50;97645.06;;;20.55;72.67
57628;BME280;43451;49.060;10.616;2023-06-24T07:47:19;97647.72;;;20.59;70.61
57628;BME280;43451;49.060;10.616;2023-06-24T07:49:45;97642.72;;;20.83;67.79
57628;BME280;43451;49.060;10.616;2023-06-24T07:52:10;97634.94;;;21.07;64.78
57628;BME280;43451;49.060;10.616;2023-06-24T07:54:36;97642.34;;;20.97;67.14
57628;BME280;43451;49.060;10.616;2023-06-24T07:57:02;97641.06;;;20.85;68.06
57628;BME280;43451;49.060;10.616;2023-06-24T07:59:27;97644.59;;;20.86;68.24
57628;BME280;43451;49.060;10.616;2023-06-24T08:01:53;97628.56;;;21.10;61.86
57628;BME280;43451;49.060;10.616;2023-06-24T08:04:18;97630.31;;;21.04;62.08
57628;BME280;43451;49.060;10.616;2023-06-24T08:06:45;97637.59;;;20.98;65.89
57628;BME280;43451;49.060;10.616;2023-06-24T08:09:10;97641.28;;;20.78;62.03
57628;BME280;43451;49.060;10.616;2023-06-24T08:11:36;97644.25;;;20.71;66.63
57628;BME280;43451;49.060;10.616;2023-06-24T08:14:02;97636.75;;;20.72;62.83
57628;BME280;43451;49.060;10.616;2023-06-24T08:16:27;97633.47;;;20.90;62.90
57628;BME280;43451;49.060;10.616;2023-06-24T08:18:53;97639.84;;;20.86;66.37
57628;BME280;43451;49.060;10.616;2023-06-24T08:21:18;97625.41;;;20.95;66.32
57628;BME280;43451;49.060;10.616;2023-06-24T08:23:45;97635.84;;;21.04;64.81
57628;BME280;43451;49.060;10.616;2023-06-24T08:26:11;97625.34;;;21.24;59.25
57628;BME280;43451;49.060;10.616;2023-06-24T08:28:36;97628.00;;;21.28;59.95
57628;BME280;43451;49.060;10.616;2023-06-24T08:31:02;97639.16;;;21.24;60.59
57628;BME280;43451;49.060;10.616;2023-06-24T08:33:27;97631.66;;;21.25;66.35
57628;BME280;43451;49.060;10.616;2023-06-24T08:35:53;97628.72;;;21.45;62.93
57628;BME280;43451;49.060;10.616;2023-06-24T08:38:19;97629.03;;;21.72;61.16
57628;BME280;43451;49.060;10.616;2023-06-24T08:40:46;97630.13;;;21.88;64.21
57628;BME280;43451;49.060;10.616;2023-06-24T08:43:12;97633.47;;;21.95;58.33
57628;BME280;43451;49.060;10.616;2023-06-24T08:45:38;97633.66;;;22.01;59.50
57628;BME280;43451;49.060;10.616;2023-06-24T08:48:04;97637.19;;;22.14;54.93
57628;BME280;43451;49.060;10.616;2023-06-24T08:50:36;97636.28;;;22.30;55.75
57628;BME280;43451;49.060;10.616;2023-06-24T08:53:07;97637.09;;;22.18;58.69
57628;BME280;43451;49.060;10.616;2023-06-24T08:55:37;97636.28;;;22.30;60.61
57628;BME280;43451;49.060;10.616;2023-06-24T08:58:04;97637.84;;;22.31;55.24
57628;BME280;43451;49.060;10.616;2023-06-24T09:00:30;97629.00;;;22.23;57.62
57628;BME280;43451;49.060;10.616;2023-06-24T09:02:55;97634.34;;;21.92;59.14
57628;BME280;43451;49.060;10.616;2023-06-24T09:05:21;97629.03;;;21.72;59.28
57628;BME280;43451;49.060;10.616;2023-06-24T09:07:48;97625.06;;;21.73;54.55
57628;BME280;43451;49.060;10.616;2023-06-24T09:10:34;97628.06;;;21.92;54.79
57628;BME280;43451;49.060;10.616;2023-06-24T09:13:05;97625.69;;;22.03;53.84
57628;BME280;43451;49.060;10.616;2023-06-24T09:15:34;97619.03;;;22.13;56.06
57628;BME280;43451;49.060;10.616;2023-06-24T09:18:00;97621.38;;;22.50;55.94
57628;BME280;43451;49.060;10.616;2023-06-24T09:20:30;97620.28;;;22.47;54.98
57628;BME280;43451;49.060;10.616;2023-06-24T09:23:01;97617.41;;;22.73;50.51
57628;BME280;43451;49.060;10.616;2023-06-24T09:25:27;97614.19;;;22.74;50.96
57628;BME280;43451;49.060;10.616;2023-06-24T09:27:53;97616.69;;;22.59;51.12
57628;BME280;43451;49.060;10.616;2023-06-24T09:30:24;97614.25;;;22.61;52.84
57628;BME280;43451;49.060;10.616;2023-06-24T09:32:53;97619.00;;;22.61;51.36
57628;BME280;43451;49.060;10.616;2023-06-24T09:35:21;97614.22;;;22.83;52.44
57628;BME280;43451;49.060;10.616;2023-06-24T09:37:53;97610.69;;;22.83;49.64
57628;BME280;43451;49.060;10.616;2023-06-24T09:40:19;97607.91;;;22.83;48.09
57628;BME280;43451;49.060;10.616;2023-06-24T09:42:51;97602.81;;;22.94;48.40
57628;BME280;43451;49.060;10.616;2023-06-24T09:45:21;97611.16;;;23.03;47.10
57628;BME280;43451;49.060;10.616;2023-06-24T09:47:47;97607.66;;;23.12;47.11
57628;BME280;43451;49.060;10.616;2023-06-24T09:50:13;97602.34;;;22.96;46.67
57628;BME280;43451;49.060;10.616;2023-06-24T09:52:38;97600.53;;;23.02;45.74
57628;BME280;43451;49.060;10.616;2023-06-24T09:55:05;97602.53;;;23.01;45.62
57628;BME280;43451;49.060;10.616;2023-06-24T09:57:33;97598.91;;;23.13;46.25
57628;BME280;43451;49.060;10.616;2023-06-24T10:00:00;97603.69;;;23.13;45.31
57628;BME280;43451;49.060;10.616;2023-06-24T10:02:29;97589.00;;;23.03;46.89
57628;BME280;43451;49.060;10.616;2023-06-24T10:04:56;97580.31;;;23.23;49.21
57628;BME280;43451;49.060;10.616;2023-06-24T10:07:22;97578.34;;;23.33;47.24
57628;BME280;43451;49.060;10.616;2023-06-24T10:09:47;97572.97;;;23.70;45.61
57628;BME280;43451;49.060;10.616;2023-06-24T10:12:14;97583.78;;;23.86;43.68
57628;BME280;43451;49.060;10.616;2023-06-24T10:14:39;97575.13;;;23.75;46.14
57628;BME280;43451;49.060;10.616;2023-06-24T10:17:05;97578.13;;;23.58;44.48
57628;BME280;43451;49.060;10.616;2023-06-24T10:19:38;97576.25;;;23.46;47.64
57628;BME280;43451;49.060;10.616;2023-06-24T10:22:07;97572.69;;;23.46;46.74
57628;BME280;43451;49.060;10.616;2023-06-24T10:24:38;97559.81;;;23.21;45.12
57628;BME280;43451;49.060;10.616;2023-06-24T10:27:14;97561.00;;;22.88;48.40
57628;BME280;43451;49.060;10.616;2023-06-24T10:29:48;97556.44;;;22.73;49.07
57628;BME280;43451;49.060;10.616;2023-06-24T10:32:14;97560.06;;;22.60;51.61
57628;BME280;43451;49.060;10.616;2023-06-24T10:34:41;97557.41;;;22.79;49.91
57628;BME280;43451;49.060;10.616;2023-06-24T10:39:47;97552.00;;;22.97;45.79
57628;BME280;43451;49.060;10.616;2023-06-24T10:42:40;97553.53;;;22.98;46.32
57628;BME280;43451;49.060;10.616;2023-06-24T10:47:37;97542.97;;;23.55;43.99
57628;BME280;43451;49.060;10.616;2023-06-24T10:50:04;97533.75;;;23.68;45.82
57628;BME280;43451;49.060;10.616;2023-06-24T10:52:30;97531.97;;;23.83;47.36
57628;BME280;43451;49.060;10.616;2023-06-24T10:54:57;97531.09;;;24.04;47.33
57628;BME280;43451;49.060;10.616;2023-06-24T10:57:27;97516.88;;;24.30;43.50
57628;BME280;43451;49.060;10.616;2023-06-24T10:59:54;97521.19;;;24.31;43.77
57628;BME280;43451;49.060;10.616;2023-06-24T11:02:22;97522.72;;;24.32;45.00
57628;BME280;43451;49.060;10.616;2023-06-24T11:04:52;97510.38;;;24.51;44.79
57628;BME280;43451;49.060;10.616;2023-06-24T11:07:22;97511.31;;;24.58;41.75
57628;BME280;43451;49.060;10.616;2023-06-24T11:09:56;97504.16;;;24.75;41.44
57628;BME280;43451;49.060;10.616;2023-06-24T11:12:31;97501.25;;;24.60;40.47
57628;BME280;43451;49.060;10.616;2023-06-24T11:14:58;97505.69;;;24.85;41.50
57628;BME280;43451;49.060;10.616;2023-06-24T11:17:24;97493.59;;;24.97;42.27
57628;BME280;43451;49.060;10.616;2023-06-24T11:19:52;97497.56;;;25.15;39.92
57628;BME280;43451;49.060;10.616;2023-06-24T11:22:18;97504.69;;;25.16;39.73
57628;BME280;43451;49.060;10.616;2023-06-24T11:24:43;97493.56;;;25.16;39.73
57628;BME280;43451;49.060;10.616;2023-06-24T11:27:09;97499.19;;;25.31;39.19
57628;BME280;43451;49.060;10.616;2023-06-24T11:29:34;97489.50;;;25.74;38.24
57628;BME280;43451;49.060;10.616;2023-06-24T11:32:02;97495.66;;;25.78;38.14
57628;BME280;43451;49.060;10.616;2023-06-24T11:34:28;97491.88;;;25.66;36.40
57628;BME280;43451;49.060;10.616;2023-06-24T11:36:53;97488.22;;;25.27;38.69
57628;BME280;43451;49.060;10.616;2023-06-24T11:39:24;97487.22;;;25.15;38.46
57628;BME280;43451;49.060;10.616;2023-06-24T11:41:51;97481.72;;;24.97;38.25
57628;BME280;43451;49.060;10.616;2023-06-24T11:44:21;97487.44;;;24.93;40.06
57628;BME280;43451;49.060;10.616;2023-06-24T11:46:48;97480.69;;;24.76;39.27
57628;BME280;43451;49.060;10.616;2023-06-24T11:49:14;97478.84;;;24.73;38.17
57628;BME280;43451;49.060;10.616;2023-06-24T11:51:50;97475.03;;;25.04;40.14
57628;BME280;43451;49.060;10.616;2023-06-24T11:54:17;97466.16;;;25.23;39.63
57628;BME280;43451;49.060;10.616;2023-06-24T11:56:51;97462.56;;;25.32;37.53
57628;BME280;43451;49.060;10.616;2023-06-24T11:59:26;97460.31;;;25.45;40.33
57628;BME280;43451;49.060;10.616;2023-06-24T12:02:01;97463.72;;;25.40;37.18
57628;BME280;43451;49.060;10.616;2023-06-24T12:04:30;97459.28;;;25.34;37.00
57628;BME280;43451;49.060;10.616;2023-06-24T12:06:56;97450.50;;;25.35;37.00
57628;BME280;43451;49.060;10.616;2023-06-24T12:09:22;97460.38;;;25.36;36.29
57628;BME280;43451;49.060;10.616;2023-06-24T12:11:48;97456.81;;;25.36;37.52
57628;BME280;43451;49.060;10.616;2023-06-24T12:14:13;97455.56;;;25.13;37.17
57628;BME280;43451;49.060;10.616;2023-06-24T12:16:39;97451.13;;;25.30;37.44
57628;BME280;43451;49.060;10.616;2023-06-24T12:19:06;97448.75;;;25.05;38.04
57628;BME280;43451;49.060;10.616;2023-06-24T12:21:32;97444.50;;;24.94;38.21
57628;BME280;43451;49.060;10.616;2023-06-24T12:23:57;97442.34;;;24.89;40.16
57628;BME280;43451;49.060;10.616;2023-06-24T12:26:23;97440.13;;;25.02;40.65
57628;BME280;43451;49.060;10.616;2023-06-24T12:28:48;97438.88;;;25.04;40.30
57628;BME280;43451;49.060;10.616;2023-06-24T12:31:14;97436.50;;;25.20;39.33
57628;BME280;43451;49.060;10.616;2023-06-24T12:33:39;97433.59;;;25.15;40.38
57628;BME280;43451;49.060;10.616;2023-06-24T12:36:07;97423.56;;;25.41;39.10
57628;BME280;43451;49.060;10.616;2023-06-24T12:38:32;97422.28;;;25.66;39.69
57628;BME280;43451;49.060;10.616;2023-06-24T12:40:59;97419.97;;;25.89;38.48
57628;BME280;43451;49.060;10.616;2023-06-24T12:43:24;97420.16;;;25.85;38.06
57628;BME280;43451;49.060;10.616;2023-06-24T12:45:50;97421.16;;;26.12;35.41
57628;BME280;43451;49.060;10.616;2023-06-24T12:48:16;97415.19;;;26.04;35.80
57628;BME280;43451;49.060;10.616;2023-06-24T12:50:42;97411.91;;;25.91;39.17
57628;BME280;43451;49.060;10.616;2023-06-24T12:53:08;97409.31;;;26.02;41.03
57628;BME280;43451;49.060;10.616;2023-06-24T12:55:36;97404.44;;;26.12;36.07
57628;BME280;43451;49.060;10.616;2023-06-24T12:58:02;97407.31;;;26.32;37.11
57628;BME280;43451;49.060;10.616;2023-06-24T13:00:27;97403.69;;;26.26;37.59